This is the latest recevied weather packets stored in our database for station/object AK4FD. If no packets are shown the sender has not sent any weather packets the latest 1 day(s).
| Time | Temp. | Humidity | Pressure | Rain* | Wind** | Luminosity | Snow |
|---|---|---|---|---|---|---|---|
| 1778014523 | 26.67° C | 34% | 1014.4 hPa | 0 mm | 0.89 m/s, 68° | 466 W/m² | - |
| 1778014220 | 26.11° C | 34% | 1014.4 hPa | 0 mm | 0 m/s | 411 W/m² | - |
| 1778013918 | 25.56° C | 35% | 1014.4 hPa | 0 mm | 0 m/s | 379 W/m² | - |
| 1778013615 | 26.11° C | 33% | 1014.5 hPa | 0 mm | 0.45 m/s, 84° | 129 W/m² | - |
| 1778013311 | 26.11° C | 33% | 1014.6 hPa | 0 mm | 1.79 m/s, 85° | 421 W/m² | - |
| 1778013008 | 26.11° C | 32% | 1014.7 hPa | 0 mm | 0 m/s | 319 W/m² | - |
| 1778012704 | 26.67° C | 32% | 1014.8 hPa | 0 mm | 1.34 m/s, 98° | 431 W/m² | - |
| 1778012400 | 26.67° C | 31% | 1014.9 hPa | 0 mm | 0.45 m/s, 115° | 182 W/m² | - |
| 1778012097 | 26.67° C | 30% | 1014.9 hPa | 0 mm | 0.89 m/s, 342° | 475 W/m² | - |
| 1778011795 | 27.22° C | 33% | 1014.8 hPa | 0 mm | 0 m/s | 355 W/m² | - |
| 1778011493 | 27.22° C | 32% | 1015 hPa | 0 mm | 0.45 m/s, 238° | 390 W/m² | - |
| 1778011188 | 27.78° C | 31% | 1014.9 hPa | 0 mm | 0.45 m/s, 31° | 522 W/m² | - |
| 1778010886 | 27.78° C | 31% | 1015 hPa | 0 mm | 0 m/s | 546 W/m² | - |
| 1778010583 | 27.78° C | 31% | 1015.2 hPa | 0 mm | 1.34 m/s, 215° | 657 W/m² | - |
| 1778010280 | 27.78° C | 31% | 1014.9 hPa | 0 mm | 0.45 m/s, 250° | 683 W/m² | - |
| 1778009980 | 27.78° C | 31% | 1015.2 hPa | 0 mm | 1.79 m/s, 78° | 706 W/m² | - |
| 1778009678 | 27.22° C | 32% | 1015.1 hPa | 0 mm | 1.79 m/s, 75° | 677 W/m² | - |
| 1778009375 | 26.67° C | 31% | 1015.2 hPa | 0 mm | 0.89 m/s, 27° | 752 W/m² | - |
| 1778009074 | 27.22° C | 31% | 1015.2 hPa | 0 mm | 1.34 m/s, 26° | 794 W/m² | - |
| 1778008771 | 27.78° C | 30% | 1015.5 hPa | 0 mm | 0 m/s | 798 W/m² | - |
| 1778008470 | 27.78° C | 31% | 1015.7 hPa | 0 mm | 0.89 m/s, 296° | 427 W/m² | - |
| 1778008166 | 27.78° C | 31% | 1015.6 hPa | 0 mm | 0.89 m/s, 256° | 772 W/m² | - |
| 1778007861 | 27.22° C | 31% | 1015.7 hPa | 0 mm | 0.89 m/s, 109° | 756 W/m² | - |
| 1778007557 | 26.67° C | 32% | 1015.8 hPa | 0 mm | 0.89 m/s, 77° | 818 W/m² | - |
| 1778007254 | 27.22° C | 32% | 1016 hPa | 0 mm | 1.34 m/s, 108° | 824 W/m² | - |
* Rain latest hour (hover to see other rain measurements)
** Current wind speed in m/s (hover to see current wind gust speed)